Terminal Aerodrome Forecast
Issued by NWS Sterling, VA

Current Version | Previous Version | Text Only | Print | Product List | Glossary Off
Versions: 1 2 3 4 5 6 7 8 9 10 11 12 13 14 15 16

000
FTUS41 KLWX 312300
TAFMRB
TAF
KMRB 312325Z 0100/0124 00000KT P6SM OVC080
     FM010200 19005KT P6SM OVC045
     FM010800 00000KT 5SM BR OVC040
     FM011200 VRB03KT P6SM BKN020
     FM011500 27006KT P6SM BKN050
     FM011800 27008KT P6SM SCT035=

USA.gov is the U.S. government's official web portal to all federal, state and local government web resources and services.